Terminal Aerodrome Forecast
Issued by NWS Brownsville, TX

Home | Current Version | Previous Version | Text Only | Print | Product List | Glossary On
Versions: 1 2 3 4 5 6 7 8 9 10 11 12 13 14 15 16 17 18 19 20 21 22 23 24 25 26 27 28 29 30 31 32
000
FTUS44 KBRO 170500
TAFMFE
TAF
KMFE 170529Z 1706/1806 15006KT P6SM SKC
     FM170900 15005KT P6SM SCT030 SCT250
     FM171500 16010G16KT P6SM SCT250
     FM172100 14012KT P6SM VCSH SCT035 SCT250=

USA.gov is the U.S. government's official web portal to all federal, state and local government web resources and services.